createdAt,value
2022-12-07T00:00:15.336Z,9.960
2022-12-07T00:01:14.018Z,9.949
2022-12-07T00:02:13.767Z,9.914
2022-12-07T00:03:13.834Z,9.883
2022-12-07T00:04:13.819Z,9.925
2022-12-07T00:05:13.322Z,9.925
2022-12-07T00:06:13.676Z,9.930
2022-12-07T00:07:13.022Z,9.935
2022-12-07T00:08:13.221Z,9.949
2022-12-07T00:09:14.218Z,9.944
2022-12-07T00:10:14.251Z,9.949
2022-12-07T00:11:13.644Z,9.970
2022-12-07T00:12:13.309Z,9.984
2022-12-07T00:13:13.113Z,9.970
2022-12-07T00:14:13.612Z,9.970
2022-12-07T00:15:13.104Z,9.965
2022-12-07T00:16:13.324Z,9.944
2022-12-07T00:17:14.222Z,9.960
2022-12-07T00:18:13.802Z,9.965
2022-12-07T00:19:13.790Z,9.970
2022-12-07T00:20:13.559Z,9.960
2022-12-07T00:21:13.552Z,9.965
2022-12-07T00:22:13.081Z,9.965
2022-12-07T00:23:13.448Z,9.965
2022-12-07T00:24:13.119Z,9.965
2022-12-07T00:25:13.812Z,9.949
2022-12-07T00:26:12.858Z,9.954
2022-12-07T00:27:13.448Z,9.944
2022-12-07T00:28:12.945Z,9.925
2022-12-07T00:29:13.954Z,9.909
2022-12-07T00:30:14.032Z,9.920
2022-12-07T00:31:12.844Z,9.944
2022-12-07T00:32:13.876Z,9.949
2022-12-07T00:33:12.893Z,9.965
2022-12-07T00:34:13.909Z,9.960
2022-12-07T00:35:13.903Z,9.956
2022-12-07T00:36:13.765Z,9.958
2022-12-07T00:37:12.908Z,9.883
2022-12-07T00:38:13.458Z,9.833
2022-12-07T00:39:13.165Z,9.911
2022-12-07T00:40:13.927Z,9.918
2022-12-07T00:41:13.122Z,9.909
2022-12-07T00:42:12.897Z,9.866
2022-12-07T00:43:13.116Z,9.840
2022-12-07T00:44:13.414Z,9.888
2022-12-07T00:45:13.650Z,9.899
2022-12-07T00:46:13.188Z,9.909
2022-12-07T00:47:12.869Z,9.888
2022-12-07T00:48:12.977Z,9.895
2022-12-07T00:49:12.956Z,9.925
2022-12-07T00:50:13.152Z,9.935
2022-12-07T00:51:13.381Z,9.975
2022-12-07T00:52:12.801Z,9.965
2022-12-07T00:53:13.179Z,9.899
2022-12-07T00:54:13.493Z,9.914
2022-12-07T00:55:13.551Z,9.939
2022-12-07T00:56:13.179Z,9.965
2022-12-07T00:57:13.742Z,10
2022-12-07T00:58:12.842Z,9.989
2022-12-07T00:59:13.409Z,10.00
2022-12-07T01:00:14.467Z,9.994
2022-12-07T01:01:15.256Z,9.965
2022-12-07T01:02:13.524Z,9.970
2022-12-07T01:03:12.965Z,9.960
2022-12-07T01:04:14.190Z,9.954
2022-12-07T01:05:13.547Z,9.954
2022-12-07T01:06:12.947Z,9.970
2022-12-07T01:07:12.556Z,9.989
2022-12-07T01:08:13.327Z,9.979
2022-12-07T01:09:12.836Z,9.965
2022-12-07T01:10:13.321Z,9.984
2022-12-07T01:11:13.891Z,9.989
2022-12-07T01:12:13.731Z,9.989
2022-12-07T01:13:13.741Z,9.975
2022-12-07T01:14:12.503Z,9.984
2022-12-07T01:15:12.690Z,9.984
2022-12-07T01:16:13.596Z,9.989
2022-12-07T01:17:13.377Z,9.994
2022-12-07T01:18:13.527Z,9.994
2022-12-07T01:19:13.561Z,9.979
2022-12-07T01:20:13.521Z,9.954
2022-12-07T01:21:13.151Z,9.984
2022-12-07T01:22:14.228Z,9.965
2022-12-07T01:23:13.284Z,9.975
2022-12-07T01:24:13.251Z,9.994
2022-12-07T01:25:13.643Z,10
2022-12-07T01:26:12.779Z,9.989
2022-12-07T01:27:13.244Z,9.994
2022-12-07T01:28:12.565Z,10.01
2022-12-07T01:29:13.127Z,10.02
2022-12-07T01:30:12.900Z,10.00
2022-12-07T01:31:13.154Z,9.994
2022-12-07T01:32:13.186Z,9.970
2022-12-07T01:33:13.142Z,9.994
2022-12-07T01:34:12.809Z,10.00
2022-12-07T01:35:13.934Z,10.02
2022-12-07T01:36:13.785Z,10.03
2022-12-07T01:37:13.478Z,10
2022-12-07T01:38:13.082Z,10.02
2022-12-07T01:39:12.598Z,10.06
2022-12-07T01:40:13.200Z,10.07
2022-12-07T01:41:13.039Z,10.09
2022-12-07T01:42:13.184Z,10.10
2022-12-07T01:43:13.006Z,10.11
2022-12-07T01:44:13.383Z,10.11
2022-12-07T01:45:12.917Z,10.11
2022-12-07T01:46:12.637Z,10.08
2022-12-07T01:47:13.225Z,10.01
2022-12-07T01:48:12.919Z,10.00
2022-12-07T01:49:13.158Z,10.02
2022-12-07T01:50:13.562Z,10.03
2022-12-07T01:51:13.108Z,10.02
2022-12-07T01:52:13.516Z,10.06
2022-12-07T01:53:13.006Z,10.02
2022-12-07T01:54:13.013Z,10.04
2022-12-07T01:55:13.957Z,10.02
2022-12-07T01:56:13.387Z,10.05
2022-12-07T01:57:12.850Z,10.07
2022-12-07T01:58:13.587Z,10.10
2022-12-07T01:59:13.204Z,10.12
2022-12-07T02:00:15.003Z,10.09
2022-12-07T02:01:14.054Z,10.08
2022-12-07T02:02:13.837Z,10.11
2022-12-07T02:03:13.918Z,10.12
2022-12-07T02:04:14.073Z,10.13
2022-12-07T02:05:13.939Z,10.11
2022-12-07T02:06:13.493Z,10.13
2022-12-07T02:07:13.060Z,10.15
2022-12-07T02:08:13.912Z,10.14
2022-12-07T02:09:13.856Z,10.13
2022-12-07T02:10:13.766Z,10.10
2022-12-07T02:11:13.690Z,10.03
2022-12-07T02:12:13.607Z,10.07
2022-12-07T02:13:13.301Z,10.08
2022-12-07T02:14:12.832Z,10.06
2022-12-07T02:15:13.518Z,10.07
2022-12-07T02:16:12.978Z,10.10
2022-12-07T02:17:17.624Z,10.13
2022-12-07T02:18:13.323Z,10.13
2022-12-07T02:19:13.642Z,10.15
2022-12-07T02:20:14.084Z,10.15
2022-12-07T02:21:13.743Z,10.15
2022-12-07T02:22:13.392Z,10.14
2022-12-07T02:23:13.182Z,10.12
2022-12-07T02:24:12.895Z,10.13
2022-12-07T02:25:13.856Z,10.12
2022-12-07T02:26:13.249Z,10.16
2022-12-07T02:27:18.565Z,10.14
2022-12-07T02:28:13.627Z,10.14
2022-12-07T02:29:20.893Z,10.15
2022-12-07T02:30:13.181Z,10.05
2022-12-07T02:31:13.352Z,10.06
2022-12-07T02:32:13.647Z,10.06
2022-12-07T02:33:13.003Z,10.12
2022-12-07T02:34:13.216Z,10.12
2022-12-07T02:35:14.103Z,10.13
2022-12-07T02:36:13.719Z,10.14
2022-12-07T02:37:27.285Z,10.14
2022-12-07T02:38:13.793Z,10.15
2022-12-07T02:39:13.451Z,10.16
2022-12-07T02:40:13.357Z,10.14
2022-12-07T02:41:13.323Z,10.15
2022-12-07T02:42:14.005Z,10.17
2022-12-07T02:43:12.563Z,10.17
2022-12-07T02:44:14.044Z,10.19
2022-12-07T02:45:13.268Z,10.20
2022-12-07T02:46:12.863Z,10.15
2022-12-07T02:47:13.816Z,10.17
2022-12-07T02:48:13.481Z,10.18
2022-12-07T02:49:12.683Z,10.12
2022-12-07T02:50:13.584Z,10.06
2022-12-07T02:51:13.513Z,10.12
2022-12-07T02:52:12.859Z,10.18
2022-12-07T02:53:12.923Z,10.11
2022-12-07T02:54:13.508Z,10.10
2022-12-07T02:55:13.233Z,10.10
2022-12-07T02:56:12.808Z,10.10
2022-12-07T02:57:13.345Z,10.12
2022-12-07T02:58:13.654Z,10.13
2022-12-07T02:59:13.107Z,10.14
2022-12-07T03:00:14.403Z,10.19
2022-12-07T03:01:14.044Z,10.20
2022-12-07T03:02:13.233Z,10.19
2022-12-07T03:03:13.022Z,10.13
2022-12-07T03:04:14.112Z,10.10
2022-12-07T03:05:13.012Z,10.07
2022-12-07T03:06:13.315Z,10.10
2022-12-07T03:07:13.659Z,10.07
2022-12-07T03:08:13.266Z,10.03
2022-12-07T03:09:12.559Z,10.03
2022-12-07T03:10:13.542Z,10.07
2022-12-07T03:11:16.354Z,10.10
2022-12-07T03:12:13.663Z,10.17
2022-12-07T03:13:13.770Z,10.13
2022-12-07T03:14:14.071Z,10.14
2022-12-07T03:15:14.331Z,10.13
2022-12-07T03:16:13.159Z,10.10
2022-12-07T03:17:13.302Z,10.12
2022-12-07T03:18:13.793Z,10.14
2022-12-07T03:19:14.028Z,10.12
2022-12-07T03:20:13.736Z,10.14
2022-12-07T03:21:12.763Z,10.10
2022-12-07T03:22:13.384Z,10.02
2022-12-07T03:23:12.931Z,10.02
2022-12-07T03:24:13.474Z,10.03
2022-12-07T03:25:13.576Z,9.980
2022-12-07T03:26:13.318Z,9.978
2022-12-07T03:27:13.373Z,10.02
2022-12-07T03:28:13.129Z,10.02
2022-12-07T03:29:13.660Z,9.967
2022-12-07T03:30:13.639Z,9.963
2022-12-07T03:31:13.770Z,9.944
2022-12-07T03:32:13.242Z,9.939
2022-12-07T03:33:13.049Z,9.883
2022-12-07T03:34:12.495Z,9.967
2022-12-07T03:35:13.144Z,10.01
2022-12-07T03:36:13.591Z,10.06
2022-12-07T03:37:13.281Z,10.03
2022-12-07T03:38:12.676Z,9.979
2022-12-07T03:39:13.434Z,9.970
2022-12-07T03:40:13.273Z,10.02
2022-12-07T03:41:12.978Z,10.05
2022-12-07T03:42:13.307Z,10.03
2022-12-07T03:43:12.970Z,10.05
2022-12-07T03:44:13.499Z,10.09
2022-12-07T03:45:13.825Z,10.08
2022-12-07T03:46:13.383Z,10.07
2022-12-07T03:47:13.580Z,10.08
2022-12-07T03:48:12.962Z,10.13
2022-12-07T03:49:12.772Z,10.12
2022-12-07T03:50:13.302Z,10.11
2022-12-07T03:51:13.527Z,10.06
2022-12-07T03:52:12.825Z,10.05
2022-12-07T03:53:13.365Z,10.07
2022-12-07T03:54:12.971Z,10.09
2022-12-07T03:55:14.202Z,10.06
2022-12-07T03:56:13.169Z,10.10
2022-12-07T03:57:13.549Z,10.13
2022-12-07T03:58:13.711Z,10.13
2022-12-07T03:59:13.960Z,10.12
2022-12-07T04:00:14.648Z,10.06
2022-12-07T04:01:13.682Z,10.10
2022-12-07T04:02:13.919Z,10.10
2022-12-07T04:03:13.347Z,10.12
2022-12-07T04:04:13.418Z,10.14
2022-12-07T04:05:13.434Z,10.17
2022-12-07T04:06:13.251Z,10.19
2022-12-07T04:07:13.578Z,10.18
2022-12-07T04:08:13.693Z,10.13
2022-12-07T04:09:13.551Z,10.17
2022-12-07T04:10:13.496Z,10.18
2022-12-07T04:11:13.241Z,10.11
2022-12-07T04:12:13.116Z,10.12
2022-12-07T04:13:13.868Z,10.17
2022-12-07T04:14:13.308Z,10.14
2022-12-07T04:15:13.126Z,10.14
2022-12-07T04:16:13.908Z,10.19
2022-12-07T04:17:13.139Z,10.21
2022-12-07T04:18:13.956Z,10.18
2022-12-07T04:19:13.837Z,10.07
2022-12-07T04:20:13.631Z,10.12
2022-12-07T04:21:13.354Z,10.13
2022-12-07T04:22:13.299Z,10.18
2022-12-07T04:23:13.273Z,10.18
2022-12-07T04:24:13.370Z,10.20
2022-12-07T04:25:13.260Z,10.20
2022-12-07T04:26:13.020Z,10.21
2022-12-07T04:27:13.987Z,10.24
2022-12-07T04:28:13.706Z,10.24
2022-12-07T04:29:13.275Z,10.25
2022-12-07T04:30:13.015Z,10.27
2022-12-07T04:31:13.609Z,10.27
2022-12-07T04:32:14.120Z,10.27
2022-12-07T04:33:13.238Z,10.28
2022-12-07T04:34:13.891Z,10.24
2022-12-07T04:35:13.521Z,10.25
2022-12-07T04:36:13.855Z,10.27
2022-12-07T04:37:13.754Z,10.28
2022-12-07T04:38:13.589Z,10.28
2022-12-07T04:39:13.491Z,10.21
2022-12-07T04:40:14.308Z,10.18
2022-12-07T04:41:13.865Z,10.21
2022-12-07T04:42:13.199Z,10.27
2022-12-07T04:43:13.216Z,10.26
2022-12-07T04:44:14.518Z,10.19
2022-12-07T04:45:14.100Z,10.19
2022-12-07T04:46:13.060Z,10.24
2022-12-07T04:47:13.912Z,10.22
2022-12-07T04:48:13.928Z,10.20
2022-12-07T04:49:13.772Z,10.23
2022-12-07T04:50:13.211Z,10.25
2022-12-07T04:51:13.855Z,10.24
2022-12-07T04:52:13.200Z,10.21
2022-12-07T04:53:13.215Z,10.25
2022-12-07T04:54:13.243Z,10.25
2022-12-07T04:55:13.876Z,10.27
2022-12-07T04:56:13.410Z,10.27
2022-12-07T04:57:12.935Z,10.26
2022-12-07T04:58:13.261Z,10.27
2022-12-07T04:59:13.312Z,10.28
2022-12-07T05:00:14.287Z,10.27
2022-12-07T05:01:13.780Z,10.28
2022-12-07T05:02:14.144Z,10.27
2022-12-07T05:03:13.138Z,10.27
2022-12-07T05:04:13.687Z,10.27
2022-12-07T05:05:13.277Z,10.25
2022-12-07T05:06:14.000Z,10.26
2022-12-07T05:07:12.970Z,10.26
2022-12-07T05:08:13.427Z,10.24
2022-12-07T05:09:14.570Z,10.28
2022-12-07T05:10:14.065Z,10.28
2022-12-07T05:11:12.730Z,10.27
2022-12-07T05:12:13.379Z,10.27
2022-12-07T05:13:13.327Z,10.28
2022-12-07T05:14:12.570Z,10.28
2022-12-07T05:15:13.122Z,10.27
2022-12-07T05:16:12.868Z,10.27
2022-12-07T05:17:13.562Z,10.24
2022-12-07T05:18:12.513Z,10.25
2022-12-07T05:19:13.249Z,10.22
2022-12-07T05:20:13.692Z,10.21
2022-12-07T05:21:13.856Z,10.20
2022-12-07T05:22:13.034Z,10.12
2022-12-07T05:23:13.024Z,10.12
2022-12-07T05:24:13.341Z,10.10
2022-12-07T05:25:13.906Z,10.02
2022-12-07T05:26:13.186Z,10.04
2022-12-07T05:27:13.939Z,10.12
2022-12-07T05:28:13.847Z,10.09
2022-12-07T05:29:13.611Z,9.984
2022-12-07T05:30:14.120Z,10.01
2022-12-07T05:31:13.301Z,10.05
2022-12-07T05:32:13.210Z,10.07
2022-12-07T05:33:12.799Z,10.09
2022-12-07T05:34:14.020Z,10.09
2022-12-07T05:35:12.981Z,10.02
2022-12-07T05:36:13.370Z,10.00
2022-12-07T05:37:13.023Z,9.975
2022-12-07T05:38:13.210Z,9.979
2022-12-07T05:39:13.242Z,9.975
2022-12-07T05:40:13.644Z,9.965
2022-12-07T05:41:13.232Z,9.984
2022-12-07T05:42:13.404Z,9.970
2022-12-07T05:43:13.293Z,9.965
2022-12-07T05:44:13.306Z,9.975
2022-12-07T05:45:13.295Z,9.975
2022-12-07T05:46:13.022Z,9.960
2022-12-07T05:47:12.624Z,9.954
2022-12-07T05:48:13.253Z,9.960
2022-12-07T05:49:13.468Z,9.944
2022-12-07T05:50:13.054Z,9.944
2022-12-07T05:51:14.040Z,9.954
2022-12-07T05:52:13.150Z,9.970
2022-12-07T05:53:16.411Z,10
2022-12-07T05:54:13.513Z,9.989
2022-12-07T05:55:13.780Z,9.965
2022-12-07T05:56:13.132Z,9.975
2022-12-07T05:57:12.719Z,9.979
2022-12-07T05:58:13.562Z,9.979
2022-12-07T05:59:13.582Z,9.975
2022-12-07T06:00:15.190Z,9.975
2022-12-07T06:01:13.674Z,9.965
2022-12-07T06:02:13.605Z,9.960
2022-12-07T06:03:13.428Z,9.960
2022-12-07T06:04:13.735Z,9.939
2022-12-07T06:05:14.138Z,9.914
2022-12-07T06:06:13.436Z,9.914
2022-12-07T06:07:13.387Z,9.944
2022-12-07T06:08:13.867Z,9.944
2022-12-07T06:09:14.233Z,9.944
2022-12-07T06:10:14.051Z,9.965
2022-12-07T06:11:11.957Z,9.944
2022-12-07T06:12:13.774Z,9.925
2022-12-07T06:13:13.733Z,9.904
2022-12-07T06:14:13.502Z,9.912
2022-12-07T06:15:13.953Z,9.921
2022-12-07T06:16:13.663Z,9.923
2022-12-07T06:17:13.869Z,9.930
2022-12-07T06:18:13.164Z,9.916
2022-12-07T06:19:14.016Z,9.896
2022-12-07T06:20:13.960Z,9.904
2022-12-07T06:21:13.514Z,9.909
2022-12-07T06:22:13.281Z,9.896
2022-12-07T06:23:14.271Z,9.925
2022-12-07T06:24:13.606Z,9.949
2022-12-07T06:25:14.218Z,9.944
2022-12-07T06:26:13.558Z,9.960
2022-12-07T06:27:13.812Z,9.965
2022-12-07T06:28:13.889Z,9.960
2022-12-07T06:29:13.221Z,9.965
2022-12-07T06:30:13.859Z,9.989
2022-12-07T06:31:14.383Z,9.984
2022-12-07T06:32:13.650Z,9.989
2022-12-07T06:33:13.783Z,10.00
2022-12-07T06:34:14.240Z,9.994
2022-12-07T06:35:14.263Z,9.989
2022-12-07T06:36:13.137Z,9.984
2022-12-07T06:37:13.464Z,9.984
2022-12-07T06:38:13.461Z,9.994
2022-12-07T06:39:13.860Z,10.01
2022-12-07T06:41:13.699Z,10.01
2022-12-07T06:42:13.524Z,10.02
2022-12-07T06:43:13.912Z,10.03
2022-12-07T06:44:13.069Z,10.07
2022-12-07T06:45:13.674Z,10.07
2022-12-07T06:46:13.504Z,10.09
2022-12-07T06:47:40.005Z,10.10
2022-12-07T06:48:13.528Z,10.11
2022-12-07T06:49:13.953Z,10.10
2022-12-07T06:50:14.298Z,10.14
2022-12-07T06:51:13.653Z,10.17
2022-12-07T06:52:13.717Z,10.15
2022-12-07T06:53:14.133Z,10.14
2022-12-07T06:54:13.418Z,10.16
2022-12-07T06:55:13.504Z,10.17
2022-12-07T06:56:13.060Z,10.17
2022-12-07T06:57:14.215Z,10.19
2022-12-07T06:58:13.485Z,10.19
2022-12-07T06:59:13.681Z,10.23
2022-12-07T07:00:21.541Z,10.27
2022-12-07T07:01:14.065Z,10.27
2022-12-07T07:02:13.414Z,10.26
2022-12-07T07:03:13.611Z,10.25
2022-12-07T07:04:13.442Z,10.27
2022-12-07T07:05:13.369Z,10.30
2022-12-07T07:06:13.601Z,10.31
2022-12-07T07:07:14.198Z,10.34
2022-12-07T07:08:22.309Z,10.33
2022-12-07T07:09:14.580Z,10.35
2022-12-07T07:10:13.913Z,10.38
2022-12-07T07:11:13.652Z,10.39
2022-12-07T07:12:14.134Z,10.40
2022-12-07T07:13:13.359Z,10.42
2022-12-07T07:14:13.697Z,10.44
2022-12-07T07:15:14.092Z,10.45
2022-12-07T07:16:13.264Z,10.47
2022-12-07T07:17:13.411Z,10.46
2022-12-07T07:18:13.518Z,10.50
2022-12-07T07:19:13.268Z,10.5
2022-12-07T07:20:13.558Z,10.50
2022-12-07T07:21:21.364Z,10.51
2022-12-07T07:22:13.805Z,10.51
2022-12-07T07:23:13.354Z,10.5
2022-12-07T07:24:13.515Z,10.5
2022-12-07T07:25:13.631Z,10.49
2022-12-07T07:26:13.339Z,10.49
2022-12-07T07:27:13.322Z,10.48
2022-12-07T07:28:13.787Z,10.48
2022-12-07T07:29:13.428Z,10.5
2022-12-07T07:30:15.079Z,10.50
2022-12-07T07:31:14.046Z,10.51
2022-12-07T07:32:13.677Z,10.52
2022-12-07T07:33:13.485Z,10.53
2022-12-07T07:34:14.150Z,10.53
2022-12-07T07:35:14.055Z,10.52
2022-12-07T07:36:13.592Z,10.52
2022-12-07T07:37:18.775Z,10.52
2022-12-07T07:38:14.172Z,10.51
2022-12-07T07:39:14.172Z,10.50
2022-12-07T07:40:14.433Z,10.52
2022-12-07T07:41:14.542Z,10.52
2022-12-07T07:42:14.068Z,10.51
2022-12-07T07:43:14.380Z,10.51
2022-12-07T07:44:13.985Z,10.51
2022-12-07T07:45:14.215Z,10.5
2022-12-07T07:46:13.257Z,10.50
2022-12-07T07:47:13.906Z,10.52
2022-12-07T07:48:13.616Z,10.52
2022-12-07T07:49:13.719Z,10.52
2022-12-07T07:50:14.357Z,10.52
2022-12-07T07:51:13.411Z,10.50
2022-12-07T07:52:13.859Z,10.50
2022-12-07T07:53:13.343Z,10.5
2022-12-07T07:54:14.164Z,10.47
2022-12-07T07:55:13.994Z,10.44
2022-12-07T07:56:12.996Z,10.46
2022-12-07T07:57:13.642Z,10.46
2022-12-07T07:58:13.959Z,10.48
2022-12-07T07:59:13.578Z,10.46
2022-12-07T08:00:14.481Z,10.47
2022-12-07T08:01:14.051Z,10.45
2022-12-07T08:02:13.807Z,10.46
2022-12-07T08:03:13.842Z,10.42
2022-12-07T08:04:13.603Z,10.46
2022-12-07T08:05:13.577Z,10.43
2022-12-07T08:06:13.667Z,10.44
2022-12-07T08:07:14.024Z,10.43
2022-12-07T08:08:14.587Z,10.43
2022-12-07T08:09:13.686Z,10.42
2022-12-07T08:10:13.616Z,10.40
2022-12-07T08:11:13.614Z,10.40
2022-12-07T08:12:14.495Z,10.39
2022-12-07T08:13:14.771Z,10.39
2022-12-07T08:14:14.051Z,10.39
2022-12-07T08:15:14.330Z,10.41
2022-12-07T08:16:14.308Z,10.40
2022-12-07T08:17:13.720Z,10.40
2022-12-07T08:18:14.223Z,10.38
2022-12-07T08:19:14.655Z,10.38
2022-12-07T08:20:13.670Z,10.38
2022-12-07T08:21:14.127Z,10.39
2022-12-07T08:22:14.096Z,10.40
2022-12-07T08:23:13.932Z,10.40
2022-12-07T08:24:13.412Z,10.43
2022-12-07T08:25:13.370Z,10.44
2022-12-07T08:26:13.562Z,10.47
2022-12-07T08:27:14.155Z,10.47
2022-12-07T08:28:13.732Z,10.51
2022-12-07T08:29:14.076Z,10.54
2022-12-07T08:30:14.926Z,10.55
2022-12-07T08:31:13.568Z,10.55
2022-12-07T08:32:13.411Z,10.56
2022-12-07T08:33:13.921Z,10.57
2022-12-07T08:34:13.242Z,10.56
2022-12-07T08:35:14.337Z,10.56
2022-12-07T08:36:14.325Z,10.56
2022-12-07T08:37:13.720Z,10.56
2022-12-07T08:38:13.986Z,10.56
2022-12-07T08:39:32.569Z,10.57
2022-12-07T08:40:14.540Z,10.57
2022-12-07T08:41:14.236Z,10.57
2022-12-07T08:42:14.458Z,10.56
2022-12-07T08:43:14.387Z,10.51
2022-12-07T08:44:14.268Z,10.51
2022-12-07T08:45:13.907Z,10.55
2022-12-07T08:46:14.048Z,10.60
2022-12-07T08:47:14.126Z,10.67
2022-12-07T08:48:13.274Z,10.70
2022-12-07T08:49:14.944Z,10.72
2022-12-07T08:50:14.524Z,10.80
2022-12-07T08:51:13.396Z,10.85
2022-12-07T08:52:13.816Z,10.93
2022-12-07T08:53:13.939Z,11
2022-12-07T08:54:12.972Z,11.02
2022-12-07T08:55:14.147Z,11.06
2022-12-07T08:56:13.387Z,11.03
2022-12-07T08:57:13.602Z,11.01
2022-12-07T08:58:13.960Z,11.06
2022-12-07T08:59:13.050Z,11.04
2022-12-07T09:00:13.648Z,10.97
2022-12-07T09:01:14.303Z,10.98
2022-12-07T09:02:13.942Z,10.89
2022-12-07T09:03:14.275Z,10.75
2022-12-07T09:04:12.836Z,10.80
2022-12-07T09:05:16.812Z,10.94
2022-12-07T09:06:14.469Z,10.97
2022-12-07T09:07:13.928Z,10.98
2022-12-07T09:08:13.552Z,11.01
2022-12-07T09:09:13.770Z,11.06
2022-12-07T09:10:14.235Z,11.02
2022-12-07T09:11:13.063Z,11
2022-12-07T09:12:13.612Z,11
2022-12-07T09:13:14.063Z,11.01
2022-12-07T09:14:13.921Z,11.02
2022-12-07T09:15:14.088Z,11.05
2022-12-07T09:16:14.641Z,11.02
2022-12-07T09:17:13.522Z,11.02
2022-12-07T09:18:13.173Z,11.02
2022-12-07T09:19:14.257Z,11.03
2022-12-07T09:20:13.372Z,11.08
2022-12-07T09:21:13.860Z,11.12
2022-12-07T09:22:13.925Z,11.09
2022-12-07T09:23:14.025Z,11.10
2022-12-07T09:24:13.817Z,11.06
2022-12-07T09:25:13.101Z,11.06
2022-12-07T09:26:12.767Z,11.09
2022-12-07T09:27:12.918Z,11.13
2022-12-07T09:28:13.084Z,11.13
2022-12-07T09:29:13.113Z,11.11
2022-12-07T09:30:12.960Z,11.13
2022-12-07T09:31:25.789Z,11.11
2022-12-07T09:32:12.798Z,11.11
2022-12-07T09:33:13.738Z,11.07
2022-12-07T09:34:13.936Z,10.97
2022-12-07T09:35:14.142Z,11.02
2022-12-07T09:36:13.414Z,11.06
2022-12-07T09:37:13.227Z,11.10
2022-12-07T09:38:13.379Z,11.07
2022-12-07T09:39:13.747Z,11.06
2022-12-07T09:40:18.893Z,11.05
2022-12-07T09:41:14.335Z,11.06
2022-12-07T09:42:13.462Z,11.10
2022-12-07T09:43:13.494Z,11.14
2022-12-07T09:44:14.089Z,11.13
2022-12-07T09:45:12.951Z,11.14
2022-12-07T09:46:14.389Z,11.12
2022-12-07T09:47:13.385Z,11.18
2022-12-07T09:48:13.461Z,11.25
2022-12-07T09:49:13.622Z,11.28
2022-12-07T09:50:21.917Z,11.26
2022-12-07T09:51:18.005Z,11.24
2022-12-07T09:52:12.945Z,11.28
2022-12-07T09:53:13.247Z,11.37
2022-12-07T09:54:13.116Z,11.38
2022-12-07T09:55:13.873Z,11.39
2022-12-07T09:56:14.157Z,11.39
2022-12-07T09:57:14.116Z,11.43
2022-12-07T09:58:13.258Z,11.47
2022-12-07T09:59:13.244Z,11.52
2022-12-07T10:00:28.104Z,11.53
2022-12-07T10:01:14.349Z,11.57
2022-12-07T10:02:13.776Z,11.63
2022-12-07T10:03:14.482Z,11.70
2022-12-07T10:04:13.609Z,11.77
2022-12-07T10:05:16.519Z,11.78
2022-12-07T10:06:13.668Z,11.83
2022-12-07T10:07:14.104Z,11.92
2022-12-07T10:08:13.532Z,11.91
2022-12-07T10:09:14.506Z,11.91
2022-12-07T10:10:13.195Z,11.97
2022-12-07T10:11:12.943Z,11.97
2022-12-07T10:12:12.905Z,12.02
2022-12-07T10:13:13.574Z,12.01
2022-12-07T10:14:14.065Z,12.05
2022-12-07T10:15:14.280Z,12.05
2022-12-07T10:16:33.367Z,12.03
2022-12-07T10:17:13.722Z,12.04
2022-12-07T10:18:14.300Z,12.03
2022-12-07T10:19:14.512Z,12.02
2022-12-07T10:20:14.220Z,11.98
2022-12-07T10:21:14.049Z,11.97
2022-12-07T10:22:14.887Z,11.95
2022-12-07T10:23:13.942Z,12.01
2022-12-07T10:24:14.297Z,12
2022-12-07T10:25:13.920Z,11.98
2022-12-07T10:26:13.788Z,11.91
2022-12-07T10:27:13.448Z,11.88
2022-12-07T10:28:13.587Z,11.90
2022-12-07T10:29:12.768Z,11.97
2022-12-07T10:30:13.649Z,12.00
2022-12-07T10:31:14.243Z,12.07
2022-12-07T10:32:14.276Z,12.05
2022-12-07T10:33:13.906Z,12.06
2022-12-07T10:34:13.970Z,12.12
2022-12-07T10:35:13.651Z,12.11
2022-12-07T10:36:14.368Z,12.11
2022-12-07T10:37:13.910Z,12.14
2022-12-07T10:38:13.223Z,12.14
2022-12-07T10:39:13.620Z,12.17
2022-12-07T10:40:14.114Z,12.21
2022-12-07T10:41:14.548Z,12.20
2022-12-07T10:42:14.045Z,12.25
2022-12-07T10:43:13.533Z,12.30
2022-12-07T10:44:13.730Z,12.27
2022-12-07T10:45:14.604Z,12.27
2022-12-07T10:46:15.132Z,12.23
2022-12-07T10:47:13.657Z,12.22
2022-12-07T10:48:13.829Z,12.21
2022-12-07T10:49:13.898Z,12.21
2022-12-07T10:50:13.984Z,12.22
2022-12-07T10:51:14.319Z,12.24
2022-12-07T10:52:14.128Z,12.26
2022-12-07T10:53:14.110Z,12.31
2022-12-07T10:54:13.776Z,12.30
2022-12-07T10:55:14.683Z,12.32
2022-12-07T10:56:14.376Z,12.36
2022-12-07T10:57:13.905Z,12.32
2022-12-07T10:58:14.701Z,12.35
2022-12-07T10:59:14.320Z,12.39
2022-12-07T11:00:15.506Z,12.42
2022-12-07T11:01:13.674Z,12.37
2022-12-07T11:02:18.969Z,12.32
2022-12-07T11:03:13.750Z,12.31
2022-12-07T11:04:14.013Z,12.22
2022-12-07T11:05:14.232Z,12.23
2022-12-07T11:06:13.800Z,12.22
2022-12-07T11:07:14.627Z,12.25
2022-12-07T11:08:13.701Z,12.23
2022-12-07T11:09:14.116Z,12.19
2022-12-07T11:10:14.525Z,12.19
2022-12-07T11:11:14.585Z,12.19
2022-12-07T11:12:14.026Z,12.17
2022-12-07T11:13:13.366Z,12.19
2022-12-07T11:14:13.870Z,12.10
2022-12-07T11:15:13.880Z,12.15
2022-12-07T11:16:14.402Z,12.19
2022-12-07T11:17:13.395Z,12.22
2022-12-07T11:18:13.859Z,12.22
2022-12-07T11:19:14.146Z,12.22
2022-12-07T11:20:14.197Z,12.18
2022-12-07T11:21:13.993Z,12.20
2022-12-07T11:22:14.249Z,12.23
2022-12-07T11:23:14.176Z,12.25
2022-12-07T11:24:13.442Z,12.26
2022-12-07T11:25:13.950Z,12.30
2022-12-07T11:26:14.223Z,12.31
2022-12-07T11:27:14.044Z,12.31
2022-12-07T11:28:13.954Z,12.32
2022-12-07T11:29:13.718Z,12.35
2022-12-07T11:30:14.215Z,12.39
2022-12-07T11:31:14.070Z,12.41
2022-12-07T11:32:13.841Z,12.43
2022-12-07T11:33:14.170Z,12.47
2022-12-07T11:34:14.189Z,12.47
2022-12-07T11:35:14.407Z,12.47
2022-12-07T11:36:14.146Z,12.47
2022-12-07T11:37:14.411Z,12.52
2022-12-07T11:38:14.524Z,12.56
2022-12-07T11:39:14.093Z,12.57
2022-12-07T11:40:13.770Z,12.60
2022-12-07T11:41:14.898Z,12.66
2022-12-07T11:42:14.054Z,12.69
2022-12-07T11:43:13.656Z,12.72
2022-12-07T11:44:14.096Z,12.72
2022-12-07T11:45:14.942Z,12.75
2022-12-07T11:46:14.063Z,12.77
2022-12-07T11:47:13.597Z,12.78
2022-12-07T11:48:13.667Z,12.80
2022-12-07T11:49:13.571Z,12.77
2022-12-07T11:50:14.001Z,12.76
2022-12-07T11:51:13.742Z,12.77
2022-12-07T11:52:13.888Z,12.77
2022-12-07T11:53:14.422Z,12.83
2022-12-07T11:54:14.058Z,12.86
2022-12-07T11:55:14.138Z,12.84
2022-12-07T11:56:14.179Z,12.77
2022-12-07T11:57:18.477Z,12.77
2022-12-07T11:58:13.968Z,12.76
2022-12-07T11:59:13.958Z,12.80
2022-12-07T12:00:14.366Z,12.79
2022-12-07T12:01:19.623Z,12.77
2022-12-07T12:02:13.869Z,12.72
2022-12-07T12:03:18.759Z,12.65
2022-12-07T12:04:13.294Z,12.65
2022-12-07T12:05:19.460Z,12.66
2022-12-07T12:06:14.385Z,12.68
2022-12-07T12:09:40.304Z,12.57
2022-12-07T12:10:14.424Z,12.52
2022-12-07T12:11:13.370Z,12.53
2022-12-07T12:14:35.311Z,12.44
2022-12-07T12:15:13.809Z,12.48
2022-12-07T12:16:14.524Z,12.47
2022-12-07T12:17:13.654Z,12.50
2022-12-07T12:18:14.040Z,12.45
2022-12-07T12:19:13.592Z,12.43
2022-12-07T12:20:14.272Z,12.42
2022-12-07T12:21:28.328Z,12.48
2022-12-07T12:22:13.611Z,12.47
2022-12-07T12:23:14.213Z,12.47
2022-12-07T12:24:13.471Z,12.44
2022-12-07T12:25:13.835Z,12.44
2022-12-07T12:26:14.174Z,12.50
2022-12-07T12:27:28.293Z,12.52
2022-12-07T12:28:13.241Z,12.55
2022-12-07T12:29:14.063Z,12.57
2022-12-07T12:30:14.307Z,12.59
2022-12-07T12:31:13.579Z,12.54
2022-12-07T12:32:14.254Z,12.47
2022-12-07T12:33:14.125Z,12.51
2022-12-07T12:34:12.970Z,12.52
2022-12-07T12:35:13.434Z,12.53
2022-12-07T12:36:13.824Z,12.51
2022-12-07T12:37:13.366Z,12.51
2022-12-07T12:38:13.711Z,12.52
2022-12-07T12:39:13.980Z,12.42
2022-12-07T12:40:14.327Z,12.39
2022-12-07T12:41:14.179Z,12.40
2022-12-07T12:42:13.817Z,12.43
2022-12-07T12:43:14.380Z,12.42
2022-12-07T12:44:14.058Z,12.39
2022-12-07T12:45:14.133Z,12.38
2022-12-07T12:46:13.547Z,12.37
2022-12-07T12:47:14.372Z,12.34
2022-12-07T12:48:14.033Z,12.31
2022-12-07T12:49:14.336Z,12.32
2022-12-07T12:50:14.767Z,12.33
2022-12-07T12:51:13.639Z,12.33
2022-12-07T12:52:14.864Z,12.36
2022-12-07T12:53:13.537Z,12.30
2022-12-07T12:54:13.721Z,12.33
2022-12-07T12:55:14.125Z,12.33
2022-12-07T12:56:13.961Z,12.33
2022-12-07T12:57:13.414Z,12.36
2022-12-07T12:58:14.043Z,12.33